Quick Links (Output Below):   Max & Min Temps   /   Climate Reports   /   Zone Forecasts
River Forecasts   /   Forestry Forecasts   /   Aviation Forecasts   /   Radars   /   Features

Terminal Aerodrome Forecast (Harrison)

Pick a Site:
Arkadelphia | El Dorado | Fayetteville | Fort Smith | Harrison | Highfill | Hot Springs | Jonesboro
Little Rock | Monticello | Mountain Home | Pine Bluff | Texarkana
 Forecast 

KHRO 010529Z 0106/0206 13010KT P6SM -RA SCT025 OVC060
     FM010800 VRB06KT 5SM -SHRA BR SCT008 BKN015 OVC040
      WS020/21045KT
      TEMPO 0108/0112 2SM SHRA BR OVC008
     FM011600 29012G20KT P6SM VCSH BKN015 OVC035
     FM012000 30014G22KT P6SM BKN025=


 Latest METARs (Observations) 
How to Decode METARs
04Z KHRO 010353Z AUTO 14010KT 10SM -RA OVC070 04/M02 A2998 RMK AO2
         RAB0254 SLP155 P0000 T00391017
         
03Z KHRO 010253Z AUTO 13010KT 10SM BKN065 OVC080 04/M03 A3001 RMK AO2
         SLP169 T00441028 58016
         
02Z KHRO 010153Z AUTO 13011KT 10SM FEW090 BKN110 05/M03 A3004 RMK AO2
         SLP177 T00501033
         
01Z KHRO 010053Z AUTO 12010KT 10SM BKN110 05/M03 A3005 RMK AO2 SLP182
         T00501033
         
00Z KHRO 312353Z AUTO 13009KT 10SM OVC110 06/M04 A3006 RMK AO2 SLP185
         T00561039 10078 20056 56020
         
***** Today's Observations (Above) *****


23Z KHRO 312253Z AUTO 13012KT 10SM SCT110 06/M04 A3007 RMK AO2 SLP186
         T00611039
         
22Z KHRO 312153Z AUTO 13011KT 10SM SCT120 07/M04 A3009 RMK AO2 SLP193
         T00721044
         
21Z KHRO 312053Z AUTO 15010KT 10SM BKN100 OVC120 08/M05 A3012 RMK AO2
         SLP205 T00781050 56037
         
20Z KHRO 311953Z AUTO 15011KT 8SM FEW100 SCT120 07/M05 A3015 RMK AO2
         SLP212 T00721050
         
19Z KHRO 311853Z AUTO 15013KT 10SM BKN120 08/M06 A3018 RMK AO2 PRESFR
         SLP225 T00781056
         
***** Yesterday's Observations (Above) *****


Back to Main Page
http://www.srh.noaa.gov/lzk/qfcst.php

USA.gov is the U.S. government's official web portal to all federal, state and local government web resources and services.